Time;durP1;ratioP1;P1;durP2;ratioP2;P2;SDS_P1;SDS_P2;PMS_P1;PMS_P2;Temp;Humidity;BMP_temperature;BMP_pressure;BME280_temperature;BME280_humidity;BME280_pressure;Samples;Min_cycle;Max_cycle;Signal;HPM_P1;HPM_P2
2022/10/12 00:02:00;;;;;;;9.18;3.42;;;;;;;;;;5005659;28;92493;-67
2022/10/12 00:04:27;;;;;;;10.35;3.83;;;;;;;;;;5011462;28;92518;-67
2022/10/12 00:06:53;;;;;;;8.38;3.90;;;;;;;;;;5011676;28;93456;-67
2022/10/12 00:09:19;;;;;;;9.75;3.53;;;;;;;;;;4992381;28;95823;-68
2022/10/12 00:11:45;;;;;;;8.80;3.88;;;;;;;;;;5004992;28;92647;-67
2022/10/12 00:14:12;;;;;;;11.15;4.05;;;;;;;;;;4998458;28;93438;-68
2022/10/12 00:16:38;;;;;;;9.05;3.75;;;;;;;;;;5008642;28;93410;-68
2022/10/12 00:19:04;;;;;;;7.40;4.03;;;;;;;;;;5001652;28;92419;-67
2022/10/12 00:21:30;;;;;;;12.57;3.97;;;;;;;;;;5000603;28;93442;-68
2022/10/12 00:24:00;;;;;;;13.20;4.13;;;;;;;;;;4993647;28;92719;-68
2022/10/12 00:26:27;;;;;;;10.57;3.80;;;;;;;;;;5005339;28;93481;-68
2022/10/12 00:28:57;;;;;;;9.07;3.90;;;;;;;;;;4996892;28;92451;-68
2022/10/12 00:31:24;;;;;;;8.48;3.53;;;;;;;;;;4994663;28;92787;-67
2022/10/12 00:33:50;;;;;;;10.38;3.78;;;;;;;;;;5006815;28;94827;-67
2022/10/12 00:36:17;;;;;;;12.68;3.67;;;;;;;;;;5003405;28;93650;-68
2022/10/12 00:38:43;;;;;;;6.30;3.15;;;;;;;;;;5005723;28;92527;-67
2022/10/12 00:41:10;;;;;;;10.15;3.20;;;;;;;;;;5016384;28;93127;-67
2022/10/12 00:43:40;;;;;;;9.55;3.28;;;;;;;;;;5008517;28;92542;-67
2022/10/12 00:46:17;;;;;;;9.88;3.00;;;;;;;;;;5002854;28;93439;-67
2022/10/12 00:48:45;;;;;;;7.93;3.20;;;;;;;;;;5010506;28;94552;-68
2022/10/12 00:51:11;;;;;;;11.73;3.67;;;;;;;;;;4996277;28;91760;-67
2022/10/12 00:53:40;;;;;;;8.07;3.00;;;;;;;;;;4999125;28;93118;-67
2022/10/12 00:56:10;;;;;;;10.63;3.00;;;;;;;;;;5002036;28;93744;-67
2022/10/12 00:58:36;;;;;;;6.03;3.10;;;;;;;;;;5005479;28;95380;-67
2022/10/12 01:01:03;;;;;;;8.15;3.42;;;;;;;;;;5004761;28;95529;-67
2022/10/12 01:03:31;;;;;;;12.40;3.60;;;;;;;;;;5002473;28;93415;-67
2022/10/12 01:05:58;;;;;;;8.77;3.83;;;;;;;;;;5007822;28;93202;-67
2022/10/12 01:08:24;;;;;;;11.90;3.40;;;;;;;;;;5001876;28;93674;-67
2022/10/12 01:10:51;;;;;;;8.05;3.35;;;;;;;;;;5006008;28;93172;-67
2022/10/12 01:13:17;;;;;;;9.77;3.22;;;;;;;;;;5003376;28;94017;-68
2022/10/12 01:15:56;;;;;;;9.00;3.40;;;;;;;;;;5003984;28;93023;-67
2022/10/12 01:18:26;;;;;;;6.47;3.20;;;;;;;;;;4996626;28;92454;-67
2022/10/12 01:20:58;;;;;;;10.40;2.77;;;;;;;;;;5004190;28;92469;-67
2022/10/12 01:23:31;;;;;;;6.72;3.22;;;;;;;;;;5001319;28;96288;-67
2022/10/12 01:25:57;;;;;;;8.65;3.05;;;;;;;;;;4998883;28;92530;-67
2022/10/12 01:28:33;;;;;;;5.05;2.55;;;;;;;;;;4995343;28;94450;-68
2022/10/12 01:31:08;;;;;;;12.40;3.25;;;;;;;;;;5011542;28;92549;-67
2022/10/12 01:33:35;;;;;;;10.07;3.05;;;;;;;;;;5005239;28;93155;-67
2022/10/12 01:36:22;;;;;;;13.07;3.00;;;;;;;;;;5013562;28;93908;-68
2022/10/12 01:38:48;;;;;;;4.50;2.95;;;;;;;;;;4997605;28;93079;-67
2022/10/12 01:41:17;;;;;;;11.38;3.38;;;;;;;;;;4996370;28;93440;-68
2022/10/12 01:43:44;;;;;;;4.97;2.60;;;;;;;;;;5005175;28;93929;-67
2022/10/12 01:46:13;;;;;;;7.00;2.72;;;;;;;;;;4998767;28;92458;-67
2022/10/12 01:48:41;;;;;;;5.15;2.88;;;;;;;;;;5013535;28;94884;-67
2022/10/12 01:51:09;;;;;;;9.68;2.88;;;;;;;;;;4997761;28;93173;-67
2022/10/12 01:53:48;;;;;;;7.07;2.85;;;;;;;;;;5004068;28;93272;-68
2022/10/12 01:56:21;;;;;;;8.25;3.03;;;;;;;;;;4999454;28;93433;-68
2022/10/12 01:59:13;;;;;;;6.97;2.80;;;;;;;;;;5003619;28;92661;-67
2022/10/12 02:01:42;;;;;;;6.15;2.85;;;;;;;;;;5012096;28;93251;-67
2022/10/12 02:04:15;;;;;;;8.35;2.72;;;;;;;;;;5009723;28;93508;-67
2022/10/12 02:06:45;;;;;;;5.90;2.90;;;;;;;;;;5001646;28;91950;-67
2022/10/12 02:09:16;;;;;;;5.82;3.00;;;;;;;;;;5008175;28;93845;-68
2022/10/12 02:11:43;;;;;;;6.20;2.80;;;;;;;;;;5018586;28;94047;-67
2022/10/12 02:14:12;;;;;;;8.50;2.78;;;;;;;;;;5006021;28;94836;-67
2022/10/12 02:16:41;;;;;;;4.63;3.10;;;;;;;;;;5010189;28;94428;-68
2022/10/12 02:19:09;;;;;;;13.18;3.10;;;;;;;;;;5011224;28;92906;-67
2022/10/12 02:21:37;;;;;;;6.95;3.10;;;;;;;;;;4997859;28;96052;-67
2022/10/12 02:24:05;;;;;;;9.90;3.00;;;;;;;;;;5001629;28;94277;-67
2022/10/12 02:26:33;;;;;;;7.15;3.20;;;;;;;;;;5007313;28;92548;-68
2022/10/12 02:29:00;;;;;;;8.57;2.92;;;;;;;;;;5001255;28;92547;-67
2022/10/12 02:31:29;;;;;;;14.50;3.13;;;;;;;;;;5011945;28;93094;-68
2022/10/12 02:33:56;;;;;;;6.82;2.92;;;;;;;;;;5007984;28;92732;-68
2022/10/12 02:36:28;;;;;;;7.05;3.53;;;;;;;;;;5003620;28;93451;-68
2022/10/12 02:39:00;;;;;;;7.80;3.05;;;;;;;;;;5006091;28;94795;-67
2022/10/12 02:41:28;;;;;;;12.45;3.50;;;;;;;;;;5008797;28;94638;-67
2022/10/12 02:44:00;;;;;;;6.55;3.28;;;;;;;;;;4998359;28;93438;-67
2022/10/12 02:46:27;;;;;;;3.90;2.90;;;;;;;;;;5009001;28;92492;-67
2022/10/12 02:48:55;;;;;;;7.10;3.22;;;;;;;;;;5002331;28;93164;-67
2022/10/12 02:51:22;;;;;;;7.78;3.53;;;;;;;;;;5009767;28;94359;-68
2022/10/12 02:53:49;;;;;;;7.88;3.55;;;;;;;;;;5009495;28;93814;-67
2022/10/12 02:56:15;;;;;;;4.68;2.95;;;;;;;;;;5007235;28;93656;-67
2022/10/12 02:58:42;;;;;;;5.43;2.88;;;;;;;;;;5012287;28;92812;-67
2022/10/12 03:01:09;;;;;;;14.15;3.63;;;;;;;;;;5009224;28;93139;-68
2022/10/12 03:03:35;;;;;;;8.68;3.00;;;;;;;;;;5011305;28;95968;-67
2022/10/12 03:06:02;;;;;;;6.97;3.63;;;;;;;;;;5005182;28;92392;-67
2022/10/12 03:08:28;;;;;;;9.95;3.60;;;;;;;;;;5007657;28;93408;-68
2022/10/12 03:10:59;;;;;;;6.72;2.80;;;;;;;;;;5012768;28;93983;-67
2022/10/12 03:13:25;;;;;;;7.50;3.15;;;;;;;;;;4996229;28;92563;-68
2022/10/12 03:15:52;;;;;;;13.93;3.15;;;;;;;;;;5015246;28;93680;-67
2022/10/12 03:18:18;;;;;;;5.85;3.25;;;;;;;;;;5001937;28;92463;-68
2022/10/12 03:20:47;;;;;;;7.15;3.08;;;;;;;;;;5005003;28;93177;-67
2022/10/12 03:23:14;;;;;;;10.25;3.35;;;;;;;;;;5007797;28;93338;-67
2022/10/12 03:25:40;;;;;;;4.05;2.70;;;;;;;;;;5012113;28;92417;-67
2022/10/12 03:28:06;;;;;;;7.22;3.03;;;;;;;;;;5005379;28;96401;-67
2022/10/12 03:30:33;;;;;;;6.40;3.10;;;;;;;;;;4998209;28;93879;-68
2022/10/12 03:32:59;;;;;;;6.40;2.78;;;;;;;;;;4995694;28;92444;-67
2022/10/12 03:35:25;;;;;;;8.82;2.80;;;;;;;;;;4998002;28;93639;-68
2022/10/12 03:37:51;;;;;;;7.20;3.00;;;;;;;;;;5002561;28;93438;-67
2022/10/12 03:40:17;;;;;;;5.68;2.58;;;;;;;;;;5015375;28;93441;-67
2022/10/12 03:42:44;;;;;;;8.50;2.97;;;;;;;;;;5011317;28;93843;-67
2022/10/12 03:45:11;;;;;;;11.95;2.75;;;;;;;;;;5014033;28;91799;-68
2022/10/12 03:47:37;;;;;;;9.50;2.80;;;;;;;;;;5005392;28;92518;-67
2022/10/12 03:50:04;;;;;;;5.07;2.60;;;;;;;;;;5004958;28;93451;-68
2022/10/12 03:52:30;;;;;;;3.42;2.40;;;;;;;;;;4997209;28;96164;-67
2022/10/12 03:54:57;;;;;;;9.10;2.92;;;;;;;;;;4995046;28;95675;-67
2022/10/12 03:57:23;;;;;;;14.75;3.17;;;;;;;;;;4995782;28;93897;-67
2022/10/12 03:59:49;;;;;;;9.65;3.35;;;;;;;;;;5016366;28;92541;-67
2022/10/12 04:02:15;;;;;;;9.38;2.72;;;;;;;;;;5008205;28;93404;-67
2022/10/12 04:04:42;;;;;;;7.53;2.17;;;;;;;;;;4997211;28;93126;-67
2022/10/12 04:07:09;;;;;;;7.90;2.63;;;;;;;;;;4997610;28;93201;-68
2022/10/12 04:09:35;;;;;;;5.82;2.47;;;;;;;;;;5005841;28;92912;-67
2022/10/12 04:12:01;;;;;;;12.90;2.60;;;;;;;;;;4996400;28;92635;-67
2022/10/12 04:14:27;;;;;;;7.97;3.00;;;;;;;;;;4995427;28;93674;-68
2022/10/12 04:16:54;;;;;;;7.57;3.10;;;;;;;;;;5010305;28;96075;-68
2022/10/12 04:19:21;;;;;;;4.85;2.70;;;;;;;;;;4996988;28;92444;-67
2022/10/12 04:21:47;;;;;;;8.10;2.70;;;;;;;;;;5013945;28;93520;-67
2022/10/12 04:24:13;;;;;;;5.88;2.67;;;;;;;;;;5000143;28;92572;-67
2022/10/12 04:26:40;;;;;;;7.30;2.90;;;;;;;;;;5002030;28;94306;-67
2022/10/12 04:29:06;;;;;;;6.05;2.78;;;;;;;;;;4994209;28;93405;-67
2022/10/12 04:31:32;;;;;;;9.25;2.75;;;;;;;;;;5012932;28;92411;-68
2022/10/12 04:33:58;;;;;;;7.80;3.30;;;;;;;;;;5011710;28;93122;-68
2022/10/12 04:36:25;;;;;;;12.13;3.78;;;;;;;;;;5006760;28;93548;-68
2022/10/12 04:38:52;;;;;;;7.85;3.05;;;;;;;;;;5001802;28;92544;-68
2022/10/12 04:41:25;;;;;;;7.13;2.83;;;;;;;;;;5012868;28;96591;-67
2022/10/12 04:43:52;;;;;;;8.40;2.75;;;;;;;;;;5005291;28;93070;-67
2022/10/12 04:46:18;;;;;;;8.05;2.65;;;;;;;;;;5006838;28;93430;-67
2022/10/12 04:48:44;;;;;;;7.32;2.90;;;;;;;;;;5010315;28;92411;-67
2022/10/12 04:51:10;;;;;;;9.35;2.60;;;;;;;;;;5009366;28;92496;-67
2022/10/12 04:53:37;;;;;;;5.07;2.70;;;;;;;;;;5005929;28;93470;-67
2022/10/12 04:56:04;;;;;;;5.03;2.70;;;;;;;;;;5006093;28;93493;-67
2022/10/12 04:58:31;;;;;;;6.50;3.45;;;;;;;;;;4994854;28;93268;-67
2022/10/12 05:00:57;;;;;;;9.05;3.10;;;;;;;;;;5003368;28;92461;-67
2022/10/12 05:03:24;;;;;;;8.48;2.75;;;;;;;;;;5004209;28;93515;-67
2022/10/12 05:05:50;;;;;;;5.18;3.03;;;;;;;;;;5008647;28;95510;-67
2022/10/12 05:08:16;;;;;;;6.25;2.67;;;;;;;;;;5012549;28;93327;-67
2022/10/12 05:10:43;;;;;;;10.10;2.67;;;;;;;;;;5000954;28;92505;-68
2022/10/12 05:13:09;;;;;;;9.20;3.17;;;;;;;;;;5002049;28;93500;-68
2022/10/12 05:15:35;;;;;;;8.30;3.67;;;;;;;;;;5002588;28;93748;-67
2022/10/12 05:18:01;;;;;;;19.13;3.20;;;;;;;;;;5013661;28;93659;-67
2022/10/12 05:20:28;;;;;;;9.13;2.78;;;;;;;;;;5000714;28;94342;-67
2022/10/12 05:22:55;;;;;;;10.35;3.10;;;;;;;;;;4998650;28;93103;-67
2022/10/12 05:25:22;;;;;;;5.65;3.00;;;;;;;;;;5000182;28;92800;-68
2022/10/12 05:27:48;;;;;;;3.00;2.70;;;;;;;;;;4999713;28;93470;-68
2022/10/12 05:30:14;;;;;;;6.93;2.53;;;;;;;;;;5003095;28;94863;-68
2022/10/12 05:32:42;;;;;;;17.65;2.92;;;;;;;;;;5008194;28;95537;-68
2022/10/12 05:35:09;;;;;;;9.52;2.42;;;;;;;;;;5007872;28;93714;-68
2022/10/12 05:37:35;;;;;;;3.78;2.70;;;;;;;;;;5000063;28;92482;-68
2022/10/12 05:40:02;;;;;;;8.68;2.83;;;;;;;;;;4997285;28;94112;-68
2022/10/12 05:42:29;;;;;;;6.15;3.05;;;;;;;;;;5004807;28;94202;-67
2022/10/12 05:44:55;;;;;;;7.47;3.00;;;;;;;;;;5010608;28;92445;-67
2022/10/12 05:47:21;;;;;;;5.50;2.80;;;;;;;;;;5016568;28;93273;-68
2022/10/12 05:49:47;;;;;;;6.68;3.15;;;;;;;;;;5003235;28;92559;-68
2022/10/12 05:52:14;;;;;;;6.93;3.05;;;;;;;;;;4994145;28;93398;-67
2022/10/12 05:54:40;;;;;;;11.93;3.60;;;;;;;;;;4998349;28;97905;-68
2022/10/12 05:57:06;;;;;;;14.40;3.65;;;;;;;;;;4995602;28;92998;-67
2022/10/12 05:59:32;;;;;;;11.80;2.92;;;;;;;;;;4993753;28;93262;-67
2022/10/12 06:01:59;;;;;;;17.98;3.90;;;;;;;;;;5006047;28;93414;-67
2022/10/12 06:04:25;;;;;;;11.05;3.58;;;;;;;;;;5012962;28;92390;-67
2022/10/12 06:06:51;;;;;;;8.85;3.40;;;;;;;;;;5000305;28;93426;-67
2022/10/12 06:09:18;;;;;;;9.50;3.72;;;;;;;;;;5009583;28;93755;-67
2022/10/12 06:11:44;;;;;;;13.40;3.85;;;;;;;;;;5013480;28;93104;-67
2022/10/12 06:14:10;;;;;;;8.43;3.00;;;;;;;;;;5012683;28;94462;-67
2022/10/12 06:16:36;;;;;;;8.45;3.60;;;;;;;;;;5005108;28;92696;-67
2022/10/12 06:19:03;;;;;;;9.77;3.22;;;;;;;;;;5007784;28;94749;-67
2022/10/12 06:21:29;;;;;;;7.35;3.17;;;;;;;;;;5012006;28;93442;-68
2022/10/12 06:24:00;;;;;;;7.57;3.28;;;;;;;;;;5008372;28;92453;-67
2022/10/12 06:26:26;;;;;;;8.57;3.15;;;;;;;;;;4994536;28;94873;-68
2022/10/12 06:28:52;;;;;;;15.05;3.88;;;;;;;;;;4998576;28;93428;-67
2022/10/12 06:31:19;;;;;;;11.57;3.63;;;;;;;;;;5006324;28;92488;-67
2022/10/12 06:33:45;;;;;;;14.20;3.75;;;;;;;;;;5004459;28;93386;-67
2022/10/12 06:36:12;;;;;;;6.18;3.20;;;;;;;;;;5017855;28;91782;-67
2022/10/12 06:38:38;;;;;;;8.32;3.17;;;;;;;;;;5017288;28;92422;-67
2022/10/12 06:41:04;;;;;;;9.70;3.10;;;;;;;;;;5014093;28;93433;-67
2022/10/12 06:43:30;;;;;;;10.40;4.18;;;;;;;;;;5003884;28;94840;-67
2022/10/12 06:46:00;;;;;;;9.60;4.13;;;;;;;;;;5006909;28;95802;-67
2022/10/12 06:48:27;;;;;;;11.70;5.00;;;;;;;;;;5000976;28;92474;-67
2022/10/12 06:50:54;;;;;;;16.42;5.15;;;;;;;;;;5008488;28;92472;-67
2022/10/12 06:53:20;;;;;;;13.20;5.00;;;;;;;;;;5014783;28;94526;-68
2022/10/12 06:55:47;;;;;;;16.10;4.82;;;;;;;;;;4996103;28;92506;-67
2022/10/12 06:58:13;;;;;;;7.80;4.28;;;;;;;;;;4996258;28;93452;-67
2022/10/12 07:00:39;;;;;;;8.45;4.03;;;;;;;;;;5035154;28;92716;-67
2022/10/12 07:03:06;;;;;;;11.75;4.55;;;;;;;;;;5026029;28;92585;-68
2022/10/12 07:05:32;;;;;;;14.38;5.63;;;;;;;;;;5014986;28;93095;-67
2022/10/12 07:07:58;;;;;;;8.18;4.18;;;;;;;;;;4996505;28;95929;-67
2022/10/12 07:10:24;;;;;;;10.85;4.00;;;;;;;;;;5016398;28;92392;-67
2022/10/12 07:12:51;;;;;;;10.77;4.07;;;;;;;;;;5019497;28;93627;-67
2022/10/12 07:15:17;;;;;;;19.05;4.05;;;;;;;;;;5016530;28;92426;-67
2022/10/12 07:17:43;;;;;;;11.82;4.28;;;;;;;;;;5015313;28;93150;-68
2022/10/12 07:20:09;;;;;;;14.05;5.30;;;;;;;;;;5000538;28;93342;-67
2022/10/12 07:22:36;;;;;;;10.70;4.50;;;;;;;;;;5000411;28;92554;-67
2022/10/12 07:25:02;;;;;;;6.65;4.05;;;;;;;;;;5015567;28;94173;-67
2022/10/12 07:27:28;;;;;;;10.90;4.47;;;;;;;;;;4999030;28;93430;-67
2022/10/12 07:29:55;;;;;;;13.15;3.75;;;;;;;;;;4996127;28;92582;-67
2022/10/12 07:32:21;;;;;;;14.98;4.72;;;;;;;;;;5001151;28;94897;-68
2022/10/12 07:34:47;;;;;;;16.92;4.78;;;;;;;;;;5018932;28;93486;-68
2022/10/12 07:37:14;;;;;;;12.95;4.45;;;;;;;;;;5015911;28;93000;-68
2022/10/12 07:39:41;;;;;;;13.23;5.07;;;;;;;;;;5013925;28;93438;-68
2022/10/12 07:42:08;;;;;;;17.13;5.22;;;;;;;;;;5002062;28;92439;-68
2022/10/12 07:44:34;;;;;;;15.18;5.22;;;;;;;;;;4995999;28;93509;-68
2022/10/12 07:47:01;;;;;;;23.17;7.53;;;;;;;;;;5013376;28;93609;-68
2022/10/12 07:49:27;;;;;;;17.17;7.35;;;;;;;;;;5016415;28;91693;-68
2022/10/12 07:51:53;;;;;;;22.15;7.47;;;;;;;;;;5006599;28;93058;-68
2022/10/12 07:54:19;;;;;;;21.25;7.60;;;;;;;;;;4995225;28;93384;-68
2022/10/12 07:56:53;;;;;;;29.17;7.88;;;;;;;;;;5008009;28;95213;-68
2022/10/12 07:59:19;;;;;;;24.17;7.57;;;;;;;;;;5014949;28;93431;-68
2022/10/12 08:01:46;;;;;;;25.35;7.55;;;;;;;;;;5011571;28;92542;-68
2022/10/12 08:04:12;;;;;;;24.20;7.30;;;;;;;;;;5015262;28;93178;-68
2022/10/12 08:06:40;;;;;;;29.25;7.78;;;;;;;;;;5014750;28;93726;-68
2022/10/12 08:09:07;;;;;;;22.52;7.93;;;;;;;;;;5015612;28;92527;-68
2022/10/12 08:11:36;;;;;;;19.88;8.85;;;;;;;;;;5013171;28;93171;-68
2022/10/12 08:14:02;;;;;;;23.33;8.48;;;;;;;;;;5016307;28;93675;-68
2022/10/12 08:16:29;;;;;;;24.77;7.30;;;;;;;;;;5013037;28;92516;-68
2022/10/12 08:18:55;;;;;;;34.97;8.63;;;;;;;;;;5002253;28;92414;-68
2022/10/12 08:21:21;;;;;;;22.75;8.30;;;;;;;;;;4993672;28;94903;-68
2022/10/12 08:23:47;;;;;;;20.65;8.75;;;;;;;;;;4995573;28;95550;-68
2022/10/12 08:26:14;;;;;;;21.13;7.68;;;;;;;;;;4995166;28;93391;-68
2022/10/12 08:28:41;;;;;;;23.30;8.80;;;;;;;;;;4994962;28;92479;-68
2022/10/12 08:31:09;;;;;;;26.23;8.25;;;;;;;;;;4993857;28;93206;-68
2022/10/12 08:33:35;;;;;;;19.58;8.05;;;;;;;;;;4993533;28;93442;-68
2022/10/12 08:36:03;;;;;;;24.48;8.05;;;;;;;;;;4994131;28;92508;-68
2022/10/12 08:38:30;;;;;;;21.10;7.53;;;;;;;;;;4998234;28;93145;-68
2022/10/12 08:41:02;;;;;;;22.70;7.60;;;;;;;;;;4995786;28;92544;-68
2022/10/12 08:43:37;;;;;;;25.48;7.53;;;;;;;;;;4993912;28;93815;-69
2022/10/12 08:46:03;;;;;;;24.17;8.02;;;;;;;;;;5003992;28;95806;-68
2022/10/12 08:48:38;;;;;;;23.05;8.30;;;;;;;;;;5015064;28;92463;-68
2022/10/12 08:51:06;;;;;;;34.67;9.50;;;;;;;;;;5007011;28;94166;-68
2022/10/12 08:53:56;;;;;;;28.33;8.55;;;;;;;;;;5002125;28;93801;-68
2022/10/12 08:56:23;;;;;;;30.50;9.15;;;;;;;;;;5012090;28;92547;-68
2022/10/12 08:58:50;;;;;;;54.22;10.40;;;;;;;;;;5014025;28;94235;-68
2022/10/12 09:01:36;;;;;;;30.52;9.02;;;;;;;;;;5009617;28;93430;-68
2022/10/12 09:04:02;;;;;;;16.20;8.70;;;;;;;;;;4995612;28;93163;-68
2022/10/12 09:06:33;;;;;;;22.50;8.65;;;;;;;;;;4994542;28;93427;-68
2022/10/12 09:09:02;;;;;;;39.35;9.23;;;;;;;;;;4994653;28;92453;-68
2022/10/12 09:11:31;;;;;;;25.77;8.95;;;;;;;;;;4999228;28;94851;-75
2022/10/12 09:14:06;;;;;;;23.13;9.90;;;;;;;;;;5014607;28;93711;-68
2022/10/12 09:16:34;;;;;;;25.15;8.85;;;;;;;;;;5001957;28;92400;-68
2022/10/12 09:19:05;;;;;;;31.98;8.98;;;;;;;;;;5001041;28;93250;-69
2022/10/12 09:21:32;;;;;;;27.08;8.98;;;;;;;;;;4994563;28;93770;-69
2022/10/12 09:23:59;;;;;;;23.48;8.95;;;;;;;;;;5016701;28;92482;-69
2022/10/12 09:26:33;;;;;;;23.50;9.02;;;;;;;;;;5012903;28;93855;-69
2022/10/12 09:28:59;;;;;;;19.95;7.80;;;;;;;;;;5015334;28;91724;-69
2022/10/12 09:31:37;;;;;;;25.83;6.95;;;;;;;;;;5008359;28;93910;-69
2022/10/12 09:34:06;;;;;;;24.75;7.75;;;;;;;;;;5009038;28;93624;-69
2022/10/12 09:36:37;;;;;;;27.55;8.20;;;;;;;;;;5005511;28;94955;-70
2022/10/12 09:39:04;;;;;;;24.00;8.15;;;;;;;;;;5008854;28;95839;-69
2022/10/12 09:41:36;;;;;;;19.88;8.00;;;;;;;;;;5009697;28;93439;-69
2022/10/12 09:44:04;;;;;;;24.45;7.53;;;;;;;;;;5014282;28;92355;-70
2022/10/12 09:46:38;;;;;;;25.90;7.00;;;;;;;;;;5010441;28;93157;-69
2022/10/12 09:49:05;;;;;;;21.90;7.18;;;;;;;;;;5012221;28;92625;-70
2022/10/12 09:51:31;;;;;;;29.02;7.57;;;;;;;;;;4995253;28;92454;-70
2022/10/12 09:54:02;;;;;;;25.42;7.43;;;;;;;;;;5006675;28;93559;-69
2022/10/12 09:56:36;;;;;;;17.73;6.85;;;;;;;;;;5012825;28;92489;-69
2022/10/12 09:59:15;;;;;;;25.67;7.47;;;;;;;;;;5012292;28;93391;-69
2022/10/12 10:01:55;;;;;;;17.42;6.72;;;;;;;;;;5001064;28;95860;-69
2022/10/12 10:04:22;;;;;;;17.65;6.90;;;;;;;;;;5006901;28;92319;-69
2022/10/12 10:06:49;;;;;;;26.70;7.60;;;;;;;;;;4997418;28;93137;-69
2022/10/12 10:09:27;;;;;;;19.85;6.90;;;;;;;;;;5000148;28;93378;-69
2022/10/12 10:11:53;;;;;;;20.45;6.72;;;;;;;;;;4998817;28;93168;-69
2022/10/12 10:14:20;;;;;;;18.00;7.55;;;;;;;;;;5012416;28;93600;-69
2022/10/12 10:16:48;;;;;;;25.85;6.95;;;;;;;;;;5013507;28;92519;-70
2022/10/12 10:19:17;;;;;;;23.65;7.28;;;;;;;;;;5017782;28;93319;-70
2022/10/12 10:21:44;;;;;;;33.53;8.48;;;;;;;;;;5016753;28;93756;-69
2022/10/12 10:24:36;;;;;;;32.47;6.60;;;;;;;;;;4999749;28;92785;-69
2022/10/12 10:27:04;;;;;;;22.55;6.68;;;;;;;;;;4994209;28;94823;-69
2022/10/12 10:29:31;;;;;;;15.65;5.82;;;;;;;;;;4997174;28;93612;-69
2022/10/12 10:32:10;;;;;;;20.08;6.43;;;;;;;;;;5006445;28;92489;-69
2022/10/12 10:34:37;;;;;;;16.48;5.40;;;;;;;;;;5013263;28;93326;-69
2022/10/12 10:37:04;;;;;;;16.25;5.97;;;;;;;;;;5009133;28;92477;-69
2022/10/12 10:39:43;;;;;;;16.42;5.88;;;;;;;;;;5016851;28;93197;-69
2022/10/12 10:42:17;;;;;;;17.80;5.40;;;;;;;;;;5010928;28;93770;-69
2022/10/12 10:44:51;;;;;;;21.45;5.50;;;;;;;;;;4995813;28;91672;-70
2022/10/12 10:47:18;;;;;;;16.02;5.53;;;;;;;;;;5016178;28;92573;-69
2022/10/12 10:49:46;;;;;;;20.92;4.47;;;;;;;;;;5015238;28;93421;-69
2022/10/12 10:52:20;;;;;;;20.95;4.93;;;;;;;;;;5017425;28;94920;-69
2022/10/12 10:54:48;;;;;;;17.83;5.30;;;;;;;;;;5016010;28;93607;-69
2022/10/12 10:57:19;;;;;;;21.23;5.25;;;;;;;;;;5015064;28;92439;-69
2022/10/12 10:59:48;;;;;;;17.58;4.75;;;;;;;;;;5016632;28;93545;-69
2022/10/12 11:02:40;;;;;;;16.90;5.38;;;;;;;;;;5017022;28;95592;-69
2022/10/12 11:05:12;;;;;;;19.35;4.72;;;;;;;;;;5007109;28;92625;-69
2022/10/12 11:08:00;;;;;;;17.70;5.47;;;;;;;;;;4997623;28;93408;-69
2022/10/12 11:10:27;;;;;;;16.00;4.75;;;;;;;;;;4997078;28;93048;-69
2022/10/12 11:13:00;;;;;;;16.33;4.93;;;;;;;;;;5007083;28;92466;-70
2022/10/12 11:15:33;;;;;;;17.98;5.50;;;;;;;;;;5014755;28;93330;-69
2022/10/12 11:18:05;;;;;;;17.20;5.28;;;;;;;;;;5005639;28;95056;-69
2022/10/12 11:20:45;;;;;;;58.45;8.07;;;;;;;;;;5000982;28;96883;-70
2022/10/12 11:23:11;;;;;;;;;;;;;;;;;;5012892;28;93446;-70
2022/10/12 11:25:56;;;;;;;19.10;5.10;;;;;;;;;;5017337;28;117045;-69
2022/10/12 11:28:27;;;;;;;15.10;4.85;;;;;;;;;;4997318;28;93226;-69
2022/10/12 11:30:53;;;;;;;;;;;;;;;;;;5003139;28;93937;-69
2022/10/12 11:33:22;;;;;;;20.85;5.00;;;;;;;;;;5009180;28;118956;-69
2022/10/12 11:35:49;;;;;;;19.80;4.93;;;;;;;;;;5016098;28;93180;-70
2022/10/12 11:38:15;;;;;;;14.15;4.85;;;;;;;;;;4999438;28;93400;-69
2022/10/12 11:40:46;;;;;;;16.08;4.18;;;;;;;;;;4996041;28;93155;-69
2022/10/12 11:43:36;;;;;;;10.18;4.00;;;;;;;;;;4993880;28;97502;-69
2022/10/12 11:46:06;;;;;;;12.90;4.13;;;;;;;;;;5015596;28;92605;-69
2022/10/12 11:48:52;;;;;;;15.73;3.90;;;;;;;;;;5016066;28;92967;-69
2022/10/12 11:51:18;;;;;;;8.98;3.03;;;;;;;;;;5008326;28;93703;-69
2022/10/12 11:53:45;;;;;;;13.88;4.22;;;;;;;;;;5010463;28;93648;-69
2022/10/12 11:56:30;;;;;;;13.50;4.35;;;;;;;;;;5022016;27;93951;-69
2022/10/12 11:59:15;;;;;;;12.48;3.50;;;;;;;;;;5006443;28;93725;-69
2022/10/12 12:02:00;;;;;;;16.15;4.28;;;;;;;;;;4997663;28;91751;-69
2022/10/12 12:04:33;;;;;;;66.35;8.68;;;;;;;;;;5010322;28;93781;-69
2022/10/12 12:07:15;;;;;;;17.70;4.78;;;;;;;;;;4994809;28;92441;-69
